Time;durP1;ratioP1;P1;durP2;ratioP2;P2;SDS_P1;SDS_P2;PMS_P1;PMS_P2;Temp;Humidity;BMP_temperature;BMP_pressure;BME280_temperature;BME280_humidity;BME280_pressure;Samples;Min_cycle;Max_cycle;Signal;HPM_P1;HPM_P2
2021/10/30 00:02:08;;;;;;;25.33;15.60;;;5.80;99.90;;;;;;4998017;28;20191;-83
2021/10/30 00:04:34;;;;;;;37.90;15.87;;;5.60;99.90;;;;;;4998708;28;20180;-83
2021/10/30 00:06:59;;;;;;;22.13;15.57;;;5.70;99.90;;;;;;4998066;28;20194;-83
2021/10/30 00:09:25;;;;;;;36.63;16.63;;;5.60;99.90;;;;;;4991396;28;20203;-83
2021/10/30 00:11:52;;;;;;;34.40;17.37;;;5.50;99.90;;;;;;5001687;28;20649;-83
2021/10/30 00:14:18;;;;;;;20.80;16.23;;;5.50;99.90;;;;;;4999888;28;20199;-82
2021/10/30 00:16:43;;;;;;;38.13;17.33;;;5.50;99.90;;;;;;5001415;28;20183;-83
2021/10/30 00:19:09;;;;;;;24.77;16.53;;;5.50;99.90;;;;;;4999604;28;20236;-83
2021/10/30 00:21:35;;;;;;;22.30;15.37;;;5.60;99.90;;;;;;5000877;28;20642;-83
2021/10/30 00:24:01;;;;;;;22.10;16.07;;;5.50;99.90;;;;;;4999464;28;20208;-82
2021/10/30 00:26:27;;;;;;;27.23;16.50;;;5.40;99.90;;;;;;4999114;28;20627;-83
2021/10/30 00:28:52;;;;;;;22.57;16.93;;;5.40;99.90;;;;;;5000373;28;20309;-82
2021/10/30 00:31:18;;;;;;;22.53;15.83;;;5.40;99.90;;;;;;5000781;28;20218;-82
2021/10/30 00:33:44;;;;;;;21.97;16.47;;;5.50;99.90;;;;;;5000493;28;20178;-83
2021/10/30 00:36:10;;;;;;;22.00;16.13;;;5.50;99.90;;;;;;5000334;28;20740;-83
2021/10/30 00:38:36;;;;;;;18.70;16.33;;;5.50;99.90;;;;;;5001136;28;20187;-82
2021/10/30 00:41:06;;;;;;;27.67;14.93;;;5.60;99.90;;;;;;4996738;28;20204;-82
2021/10/30 00:43:33;;;;;;;19.53;15.83;;;5.60;99.90;;;;;;4999593;28;20206;-83
2021/10/30 00:45:59;;;;;;;23.13;17.93;;;5.60;99.90;;;;;;4999391;28;20179;-83
2021/10/30 00:48:25;;;;;;;22.53;16.17;;;5.60;99.90;;;;;;5000825;28;20244;-83
2021/10/30 00:50:51;;;;;;;31.83;16.77;;;5.60;99.90;;;;;;5000483;28;20226;-83
2021/10/30 00:53:17;;;;;;;33.63;15.17;;;5.60;99.90;;;;;;5000812;28;20197;-83
2021/10/30 00:55:44;;;;;;;22.43;16.20;;;5.40;99.90;;;;;;4999185;28;20184;-81
2021/10/30 00:58:11;;;;;;;29.53;17.57;;;5.40;99.90;;;;;;5000232;28;20179;-83
2021/10/30 01:00:37;;;;;;;27.20;18.00;;;5.40;99.90;;;;;;4998415;28;20226;-82
2021/10/30 01:03:05;;;;;;;25.63;18.43;;;5.40;99.90;;;;;;4998707;28;20201;-83
2021/10/30 01:05:31;;;;;;;22.77;17.83;;;5.40;99.90;;;;;;4998800;28;20186;-81
2021/10/30 01:07:56;;;;;;;27.60;18.30;;;5.40;99.90;;;;;;4999961;28;20261;-81
2021/10/30 01:10:22;;;;;;;27.40;19.37;;;5.50;99.90;;;;;;4998698;28;20198;-83
2021/10/30 01:12:49;;;;;;;31.17;19.57;;;5.50;99.90;;;;;;4999494;28;20248;-82
2021/10/30 01:15:14;;;;;;;28.60;19.20;;;5.50;99.90;;;;;;5000028;28;20547;-82
2021/10/30 01:17:40;;;;;;;25.33;19.30;;;5.40;99.90;;;;;;4998355;28;20196;-83
2021/10/30 01:20:06;;;;;;;26.50;19.20;;;5.60;99.90;;;;;;5000933;28;20210;-83
2021/10/30 01:22:35;;;;;;;40.43;19.53;;;5.60;99.90;;;;;;5001497;28;20261;-82
2021/10/30 01:25:02;;;;;;;41.77;19.23;;;5.60;99.90;;;;;;5000528;28;20185;-83
2021/10/30 01:27:28;;;;;;;43.07;20.37;;;5.60;99.90;;;;;;5001973;28;20181;-83
2021/10/30 01:29:54;;;;;;;46.33;19.00;;;5.60;99.90;;;;;;5002000;28;20689;-83
2021/10/30 01:32:20;;;;;;;31.73;17.93;;;5.50;99.90;;;;;;5001830;28;20208;-83
2021/10/30 01:34:46;;;;;;;27.60;19.37;;;5.50;99.90;;;;;;5000931;28;20606;-84
2021/10/30 01:37:13;;;;;;;31.33;18.87;;;5.50;99.90;;;;;;5000638;28;20186;-83
2021/10/30 01:39:40;;;;;;;37.47;19.17;;;5.50;99.90;;;;;;5001627;28;20674;-83
2021/10/30 01:42:06;;;;;;;27.17;19.93;;;5.40;99.90;;;;;;5000298;28;20208;-83
2021/10/30 01:44:32;;;;;;;41.23;21.43;;;5.40;99.90;;;;;;5000494;28;20216;-83
2021/10/30 01:47:00;;;;;;;30.43;20.67;;;5.40;99.90;;;;;;4999550;28;20543;-83
2021/10/30 01:49:26;;;;;;;36.53;19.83;;;5.40;99.90;;;;;;4999357;28;20208;-83
2021/10/30 01:51:52;;;;;;;31.67;20.73;;;5.50;99.90;;;;;;5001396;28;20194;-82
2021/10/30 01:54:18;;;;;;;61.17;21.03;;;5.50;99.90;;;;;;5001539;28;20193;-83
2021/10/30 01:56:44;;;;;;;50.63;19.70;;;5.50;99.90;;;;;;5003004;28;20191;-83
2021/10/30 01:59:09;;;;;;;32.47;19.40;;;5.40;99.90;;;;;;5001513;28;20189;-82
2021/10/30 02:01:35;;;;;;;33.93;20.73;;;5.40;99.90;;;;;;4998139;28;20208;-83
2021/10/30 02:04:01;;;;;;;29.03;20.13;;;5.40;99.90;;;;;;4998719;28;20568;-83
2021/10/30 02:06:28;;;;;;;29.40;20.17;;;5.50;99.90;;;;;;4998092;28;20541;-83
2021/10/30 02:08:53;;;;;;;44.43;19.40;;;5.50;99.90;;;;;;4998469;28;20248;-80
2021/10/30 02:11:19;;;;;;;32.63;19.40;;;5.50;99.90;;;;;;4998730;28;20648;-81
2021/10/30 02:13:45;;;;;;;26.17;19.83;;;5.50;99.90;;;;;;4997938;28;20242;-84
2021/10/30 02:16:13;;;;;;;32.90;18.33;;;5.50;99.90;;;;;;4999266;28;20179;-82
2021/10/30 02:18:39;;;;;;;30.50;19.27;;;5.40;99.90;;;;;;4989547;28;20192;-82
2021/10/30 02:21:05;;;;;;;29.17;18.93;;;5.30;99.90;;;;;;4985378;28;20323;-81
2021/10/30 02:23:31;;;;;;;37.57;19.77;;;5.30;99.90;;;;;;4993229;28;20237;-82
2021/10/30 02:25:57;;;;;;;30.60;17.97;;;5.30;99.90;;;;;;4995693;28;20178;-82
2021/10/30 02:28:22;;;;;;;40.97;18.43;;;5.20;99.90;;;;;;4996916;28;20234;-83
2021/10/30 02:30:48;;;;;;;32.03;18.10;;;5.20;99.90;;;;;;4996826;28;20203;-82
2021/10/30 02:33:14;;;;;;;32.23;18.10;;;5.10;99.90;;;;;;4996299;28;20273;-80
2021/10/30 02:35:40;;;;;;;25.87;18.53;;;5.20;99.90;;;;;;4995719;28;20195;-80
2021/10/30 02:38:06;;;;;;;36.13;18.10;;;5.20;99.90;;;;;;4999611;28;20182;-82
2021/10/30 02:40:32;;;;;;;23.40;18.03;;;5.20;99.90;;;;;;4997949;28;20199;-81
2021/10/30 02:42:57;;;;;;;27.67;19.50;;;5.20;99.90;;;;;;4999051;28;20556;-81
2021/10/30 02:45:23;;;;;;;24.37;17.73;;;5.10;99.90;;;;;;4999326;28;20215;-81
2021/10/30 02:47:49;;;;;;;25.10;18.63;;;5.20;99.90;;;;;;5000647;28;20239;-80
2021/10/30 02:50:15;;;;;;;25.23;17.97;;;5.20;99.90;;;;;;4998353;28;20593;-81
2021/10/30 02:52:41;;;;;;;27.60;18.47;;;5.20;99.90;;;;;;5001177;28;20190;-82
2021/10/30 02:55:07;;;;;;;24.13;17.40;;;5.20;99.90;;;;;;5002413;28;20178;-81
2021/10/30 02:57:33;;;;;;;25.67;17.80;;;5.30;99.90;;;;;;5001267;28;20542;-82
2021/10/30 02:59:59;;;;;;;21.80;16.93;;;5.40;99.90;;;;;;5000738;28;20213;-81
2021/10/30 03:02:25;;;;;;;26.20;16.43;;;5.40;99.90;;;;;;5000335;28;20187;-82
2021/10/30 03:04:51;;;;;;;23.00;16.60;;;5.30;99.90;;;;;;5000126;28;20174;-82
2021/10/30 03:07:18;;;;;;;27.67;17.23;;;5.30;99.90;;;;;;5000785;28;20179;-82
2021/10/30 03:09:49;;;;;;;20.87;15.40;;;5.30;99.90;;;;;;4997549;28;20264;-82
2021/10/30 03:12:15;;;;;;;22.40;15.93;;;5.30;99.90;;;;;;4998655;28;20179;-82
2021/10/30 03:14:40;;;;;;;23.33;16.17;;;5.30;99.90;;;;;;4999665;28;20181;-82
2021/10/30 03:17:06;;;;;;;26.17;15.10;;;5.20;99.90;;;;;;4986214;28;20599;-83
2021/10/30 03:19:32;;;;;;;26.70;15.07;;;5.20;99.90;;;;;;4991898;28;20275;-82
2021/10/30 03:21:58;;;;;;;28.17;16.43;;;5.10;99.90;;;;;;4981486;28;20174;-82
2021/10/30 03:24:24;;;;;;;43.90;16.73;;;5.00;99.90;;;;;;4986517;28;20189;-83
2021/10/30 03:26:50;;;;;;;25.13;17.37;;;5.00;99.90;;;;;;4985741;28;20192;-82
2021/10/30 03:29:15;;;;;;;23.87;17.27;;;5.00;99.90;;;;;;4992047;28;20202;-82
2021/10/30 03:31:41;;;;;;;36.30;16.37;;;5.00;99.90;;;;;;5003983;28;20593;-83
2021/10/30 03:34:07;;;;;;;28.50;17.00;;;5.00;99.90;;;;;;4980674;28;20727;-82
2021/10/30 03:36:33;;;;;;;31.73;17.67;;;5.00;99.90;;;;;;4994410;28;20188;-82
2021/10/30 03:38:59;;;;;;;31.50;18.43;;;5.00;99.90;;;;;;4983121;28;20183;-80
2021/10/30 03:41:24;;;;;;;29.80;18.57;;;4.90;99.90;;;;;;4982551;28;20183;-83
2021/10/30 03:43:50;;;;;;;34.87;18.80;;;4.80;99.90;;;;;;4984897;28;20208;-83
2021/10/30 03:46:16;;;;;;;47.30;21.03;;;4.90;99.90;;;;;;4987162;28;20194;-83
2021/10/30 03:48:41;;;;;;;62.67;24.13;;;4.80;99.90;;;;;;4998159;28;20221;-83
2021/10/30 03:51:07;;;;;;;45.77;23.70;;;4.70;99.90;;;;;;4997359;28;20267;-84
2021/10/30 03:53:33;;;;;;;42.13;24.37;;;4.70;99.90;;;;;;4996326;28;20190;-81
2021/10/30 03:55:58;;;;;;;56.53;23.67;;;4.70;99.90;;;;;;4998645;28;20178;-81
2021/10/30 03:58:24;;;;;;;55.17;23.63;;;4.70;99.90;;;;;;4998268;28;20208;-81
2021/10/30 04:00:50;;;;;;;42.70;23.70;;;4.70;99.90;;;;;;4995686;28;20214;-81
2021/10/30 04:03:15;;;;;;;42.57;24.17;;;4.80;99.90;;;;;;4982433;28;20204;-80
2021/10/30 04:05:41;;;;;;;36.90;23.93;;;4.70;99.90;;;;;;4988276;28;20173;-80
2021/10/30 04:08:07;;;;;;;42.10;25.27;;;4.70;99.90;;;;;;4984057;28;20591;-80
2021/10/30 04:10:33;;;;;;;52.43;31.40;;;4.70;99.90;;;;;;4978830;28;20195;-79
2021/10/30 04:12:59;;;;;;;47.13;27.23;;;4.80;99.90;;;;;;4984969;28;20186;-79
2021/10/30 04:15:25;;;;;;;41.97;25.23;;;4.60;99.90;;;;;;4987305;28;20190;-80
2021/10/30 04:17:50;;;;;;;42.57;23.17;;;4.60;99.90;;;;;;4984980;28;20186;-81
2021/10/30 04:20:16;;;;;;;42.97;20.83;;;4.80;99.90;;;;;;4987081;28;20575;-81
2021/10/30 04:22:42;;;;;;;42.27;20.33;;;4.60;99.90;;;;;;4985659;28;20573;-81
2021/10/30 04:25:08;;;;;;;29.60;20.53;;;4.50;99.90;;;;;;4984841;28;20173;-81
2021/10/30 04:27:34;;;;;;;29.43;21.53;;;4.50;99.90;;;;;;4983198;28;20182;-81
2021/10/30 04:29:59;;;;;;;29.70;19.60;;;4.60;99.90;;;;;;4987827;28;20664;-81
2021/10/30 04:32:25;;;;;;;25.83;18.20;;;4.50;99.90;;;;;;4980392;28;20202;-82
2021/10/30 04:34:58;;;;;;;29.80;17.70;;;4.50;99.90;;;;;;4994997;28;20181;-81
2021/10/30 04:37:24;;;;;;;24.43;18.10;;;4.50;99.90;;;;;;4998192;28;20237;-82
2021/10/30 04:39:52;;;;;;;23.93;17.37;;;4.40;99.90;;;;;;4998059;28;20690;-80
2021/10/30 04:42:18;;;;;;;26.90;18.90;;;4.40;99.90;;;;;;4997088;28;20644;-81
2021/10/30 04:44:45;;;;;;;24.67;17.63;;;4.40;99.90;;;;;;4998720;28;20182;-82
2021/10/30 04:47:13;;;;;;;27.30;18.40;;;4.40;99.90;;;;;;4999024;28;20177;-80
2021/10/30 04:49:40;;;;;;;23.43;17.23;;;4.30;99.90;;;;;;4998101;28;20417;-80
2021/10/30 04:52:07;;;;;;;19.63;15.97;;;4.30;99.90;;;;;;4999476;28;20184;-82
2021/10/30 04:54:33;;;;;;;20.70;16.80;;;4.30;99.90;;;;;;4998345;28;20551;-80
2021/10/30 04:56:58;;;;;;;18.50;14.93;;;4.20;99.90;;;;;;4998698;28;20190;-82
2021/10/30 04:59:24;;;;;;;16.90;14.90;;;4.20;99.90;;;;;;4997629;28;20207;-83
2021/10/30 05:01:50;;;;;;;18.93;13.67;;;4.20;99.90;;;;;;4998733;28;20206;-81
2021/10/30 05:04:16;;;;;;;15.00;13.50;;;4.30;99.90;;;;;;4999025;28;20201;-80
2021/10/30 05:06:41;;;;;;;15.27;13.30;;;4.20;99.90;;;;;;4997746;28;20185;-81
2021/10/30 05:09:07;;;;;;;15.57;13.97;;;4.30;99.90;;;;;;4998031;28;20196;-80
2021/10/30 05:11:33;;;;;;;14.70;13.17;;;4.30;99.90;;;;;;4997037;28;20551;-82
2021/10/30 05:13:58;;;;;;;14.23;12.77;;;4.30;99.90;;;;;;4998892;28;20186;-81
2021/10/30 05:16:25;;;;;;;14.17;12.53;;;4.30;99.90;;;;;;4997515;28;20183;-82
2021/10/30 05:18:51;;;;;;;14.47;11.90;;;4.40;99.90;;;;;;4996949;28;20185;-81
2021/10/30 05:21:16;;;;;;;13.07;11.77;;;4.30;99.90;;;;;;4999315;28;20299;-80
2021/10/30 05:23:42;;;;;;;13.50;12.10;;;4.30;99.90;;;;;;4997302;28;20197;-81
2021/10/30 05:26:08;;;;;;;12.77;11.47;;;4.20;99.90;;;;;;4997693;28;20728;-81
2021/10/30 05:28:35;;;;;;;12.50;11.30;;;4.30;99.90;;;;;;4996209;28;20231;-80
2021/10/30 05:31:01;;;;;;;13.13;11.83;;;4.30;99.90;;;;;;4996351;28;20204;-80
2021/10/30 05:33:27;;;;;;;12.73;11.63;;;4.30;99.90;;;;;;4995229;28;20178;-81
2021/10/30 05:35:53;;;;;;;11.63;10.50;;;4.30;99.90;;;;;;4995042;28;20557;-80
2021/10/30 05:38:19;;;;;;;11.63;10.40;;;4.30;99.90;;;;;;4992154;28;20232;-80
2021/10/30 05:40:45;;;;;;;11.67;10.50;;;4.30;99.90;;;;;;4991047;28;20201;-81
2021/10/30 05:43:12;;;;;;;11.80;10.60;;;4.30;99.90;;;;;;4995687;28;20209;-81
2021/10/30 05:45:39;;;;;;;12.73;11.40;;;4.30;99.90;;;;;;4994775;28;20177;-81
2021/10/30 05:48:06;;;;;;;13.67;11.73;;;4.30;99.90;;;;;;4994140;28;20204;-81
2021/10/30 05:50:32;;;;;;;14.47;12.97;;;4.20;99.90;;;;;;4994599;28;20569;-81
2021/10/30 05:52:58;;;;;;;46.60;14.40;;;4.20;99.90;;;;;;4993487;28;20181;-80
2021/10/30 05:55:24;;;;;;;21.00;13.37;;;4.10;99.90;;;;;;4992144;28;20184;-81
2021/10/30 05:57:50;;;;;;;57.07;17.70;;;4.10;99.90;;;;;;4994502;28;20315;-80
2021/10/30 06:00:15;;;;;;;23.40;14.97;;;3.90;99.90;;;;;;4995122;28;20205;-82
2021/10/30 06:02:41;;;;;;;21.10;12.50;;;3.90;99.90;;;;;;4991941;28;20245;-80
2021/10/30 06:05:07;;;;;;;33.23;10.83;;;3.90;99.90;;;;;;4994793;28;20233;-80
2021/10/30 06:07:33;;;;;;;37.60;11.13;;;3.80;99.90;;;;;;4994206;28;20591;-81
2021/10/30 06:09:59;;;;;;;13.43;11.97;;;3.80;99.90;;;;;;4993332;28;20225;-82
2021/10/30 06:12:25;;;;;;;29.43;11.43;;;3.80;99.90;;;;;;4996784;28;20223;-81
2021/10/30 06:14:51;;;;;;;13.67;10.80;;;3.80;99.90;;;;;;4998441;28;20178;-81
2021/10/30 06:17:17;;;;;;;12.63;11.30;;;3.90;99.90;;;;;;4994513;28;20236;-81
2021/10/30 06:19:42;;;;;;;11.47;10.37;;;3.80;99.90;;;;;;5001815;28;20193;-80
2021/10/30 06:22:08;;;;;;;11.60;10.57;;;3.80;99.90;;;;;;4998811;28;20187;-81
2021/10/30 06:24:33;;;;;;;11.20;10.20;;;3.80;99.90;;;;;;4994993;28;20198;-80
2021/10/30 06:26:59;;;;;;;9.70;8.90;;;3.80;99.90;;;;;;4997036;28;20236;-82
2021/10/30 06:29:28;;;;;;;11.93;9.83;;;3.90;99.90;;;;;;4997122;28;20427;-82
2021/10/30 06:31:53;;;;;;;10.77;9.87;;;3.90;99.90;;;;;;4998157;28;20197;-81
2021/10/30 06:34:19;;;;;;;11.30;9.77;;;3.90;99.90;;;;;;4997374;28;20178;-81
2021/10/30 06:36:45;;;;;;;12.57;10.23;;;3.90;99.90;;;;;;4997495;28;20173;-78
2021/10/30 06:39:11;;;;;;;11.50;10.40;;;3.80;99.90;;;;;;5004456;28;20177;-81
2021/10/30 06:41:36;;;;;;;11.30;10.20;;;3.80;99.90;;;;;;4996995;28;20186;-81
2021/10/30 06:44:02;;;;;;;10.90;9.97;;;3.90;99.90;;;;;;4995954;28;20207;-81
2021/10/30 06:46:28;;;;;;;10.73;9.63;;;3.80;99.90;;;;;;5000112;28;20223;-81
2021/10/30 06:48:56;;;;;;;11.80;10.60;;;3.70;99.90;;;;;;4998753;28;20512;-79
2021/10/30 06:51:23;;;;;;;14.30;11.97;;;3.80;99.90;;;;;;4998656;28;20552;-80
2021/10/30 06:53:49;;;;;;;12.27;11.00;;;3.90;99.90;;;;;;4998729;28;20183;-81
2021/10/30 06:56:16;;;;;;;11.63;10.43;;;3.90;99.90;;;;;;4998848;28;20763;-81
2021/10/30 06:58:41;;;;;;;12.07;10.87;;;3.80;99.90;;;;;;4998501;28;20176;-81
2021/10/30 07:01:07;;;;;;;12.23;10.93;;;3.80;99.90;;;;;;4999263;28;20719;-80
2021/10/30 07:03:35;;;;;;;12.10;10.97;;;3.80;99.90;;;;;;4993459;28;20623;-82
2021/10/30 07:06:01;;;;;;;12.07;10.87;;;3.90;99.90;;;;;;4994017;28;20175;-82
2021/10/30 07:08:26;;;;;;;13.40;12.00;;;4.00;99.90;;;;;;4995546;28;20556;-81
2021/10/30 07:10:52;;;;;;;12.20;11.00;;;4.10;99.90;;;;;;4996897;28;20184;-81
2021/10/30 07:13:17;;;;;;;13.13;11.93;;;4.10;99.90;;;;;;4995152;28;20235;-82
2021/10/30 07:15:44;;;;;;;12.07;10.87;;;4.10;99.90;;;;;;5005286;28;20189;-80
2021/10/30 07:18:10;;;;;;;13.37;11.53;;;4.00;99.90;;;;;;4990138;28;20264;-80
2021/10/30 07:20:36;;;;;;;14.70;12.70;;;4.00;99.90;;;;;;4997382;28;20264;-80
2021/10/30 07:23:02;;;;;;;17.10;13.63;;;4.00;99.90;;;;;;4980489;28;20636;-82
2021/10/30 07:25:28;;;;;;;15.53;13.03;;;4.10;99.90;;;;;;4980110;28;20181;-80
2021/10/30 07:27:53;;;;;;;17.27;14.27;;;4.20;99.90;;;;;;4995796;28;20185;-81
2021/10/30 07:30:19;;;;;;;15.17;13.00;;;4.30;99.90;;;;;;4994759;28;20207;-81
2021/10/30 07:32:51;;;;;;;16.30;13.80;;;4.30;99.90;;;;;;4991845;28;20539;-82
2021/10/30 07:35:17;;;;;;;18.87;15.63;;;4.30;99.90;;;;;;4996451;28;20179;-79
2021/10/30 07:37:42;;;;;;;18.00;15.20;;;4.20;99.90;;;;;;4997971;28;20193;-82
2021/10/30 07:40:09;;;;;;;14.83;13.40;;;4.30;99.90;;;;;;4996373;28;20706;-82
2021/10/30 07:42:35;;;;;;;16.53;14.03;;;4.30;99.90;;;;;;4996633;28;20196;-81
2021/10/30 07:45:00;;;;;;;17.50;13.23;;;4.30;99.90;;;;;;4996440;28;20309;-81
2021/10/30 07:47:26;;;;;;;17.07;14.77;;;4.40;99.90;;;;;;4995144;28;20174;-82
2021/10/30 07:49:52;;;;;;;18.67;15.90;;;4.50;99.90;;;;;;4996298;28;20696;-81
2021/10/30 07:52:17;;;;;;;17.83;15.63;;;4.60;99.90;;;;;;4990791;28;20169;-82
2021/10/30 07:54:43;;;;;;;21.20;16.83;;;4.60;99.90;;;;;;4996056;28;20220;-81
2021/10/30 07:57:10;;;;;;;21.17;17.27;;;4.50;99.90;;;;;;4995854;28;20188;-81
2021/10/30 07:59:37;;;;;;;20.53;17.13;;;4.50;99.90;;;;;;4995812;28;20263;-81
2021/10/30 08:02:04;;;;;;;21.90;17.17;;;4.60;99.90;;;;;;4992644;28;20232;-82
2021/10/30 08:04:31;;;;;;;21.03;17.60;;;4.60;99.90;;;;;;4989182;28;20674;-82
2021/10/30 08:06:57;;;;;;;23.10;19.17;;;4.60;99.90;;;;;;4995353;28;20178;-80
2021/10/30 08:09:23;;;;;;;25.60;20.57;;;4.60;99.90;;;;;;5008929;28;20204;-83
2021/10/30 08:11:49;;;;;;;31.60;22.97;;;4.60;99.90;;;;;;4996188;28;20177;-81
2021/10/30 08:14:14;;;;;;;35.67;23.07;;;4.80;99.90;;;;;;4993589;28;20319;-82
2021/10/30 08:16:40;;;;;;;31.37;23.47;;;4.80;99.90;;;;;;4991680;28;20175;-82
2021/10/30 08:19:06;;;;;;;34.33;23.13;;;4.80;99.90;;;;;;4998907;28;20202;-81
2021/10/30 08:21:32;;;;;;;31.60;23.97;;;4.80;99.90;;;;;;4989485;28;20181;-80
2021/10/30 08:23:58;;;;;;;33.27;23.93;;;4.90;99.90;;;;;;4992615;28;20558;-80
2021/10/30 08:26:24;;;;;;;29.87;22.83;;;5.00;99.90;;;;;;4989744;28;20172;-82
2021/10/30 08:28:50;;;;;;;22.30;18.37;;;5.10;99.90;;;;;;4995370;28;20185;-83
2021/10/30 08:31:16;;;;;;;19.67;17.10;;;5.10;99.90;;;;;;4995909;28;20192;-81
2021/10/30 08:33:42;;;;;;;21.27;17.77;;;5.10;99.90;;;;;;4992156;28;20222;-81
2021/10/30 08:36:08;;;;;;;23.93;17.33;;;5.00;99.90;;;;;;4989338;28;20209;-81
2021/10/30 08:38:35;;;;;;;25.00;19.50;;;5.20;99.90;;;;;;4995053;28;20329;-82
2021/10/30 08:41:02;;;;;;;26.10;19.90;;;5.20;99.90;;;;;;4987955;28;20571;-81
2021/10/30 08:43:28;;;;;;;20.90;17.70;;;5.30;99.90;;;;;;4985915;28;20208;-82
2021/10/30 08:45:57;;;;;;;22.60;19.03;;;5.40;99.90;;;;;;4993080;28;20706;-80
2021/10/30 08:48:25;;;;;;;21.57;17.50;;;5.40;99.90;;;;;;4990890;28;20175;-82
2021/10/30 08:50:53;;;;;;;23.37;17.77;;;5.50;99.90;;;;;;4996566;28;20272;-83
2021/10/30 08:53:20;;;;;;;20.07;17.17;;;5.50;99.90;;;;;;4992758;28;20577;-82
2021/10/30 08:55:47;;;;;;;21.83;18.07;;;5.50;99.90;;;;;;4992793;28;20186;-82
2021/10/30 08:58:15;;;;;;;26.23;20.30;;;5.60;99.90;;;;;;4991870;28;20276;-82
2021/10/30 09:00:45;;;;;;;27.40;20.83;;;5.70;99.90;;;;;;4990327;28;20652;-82
2021/10/30 09:03:13;;;;;;;26.23;20.40;;;5.70;99.90;;;;;;4985420;28;20207;-82
2021/10/30 09:05:41;;;;;;;28.60;21.50;;;5.80;99.90;;;;;;4985556;28;20219;-83
2021/10/30 09:08:08;;;;;;;32.67;23.10;;;5.80;99.90;;;;;;4986078;28;20244;-82
2021/10/30 09:10:40;;;;;;;34.30;23.13;;;5.80;99.90;;;;;;4989537;28;20201;-82
2021/10/30 09:13:09;;;;;;;32.03;22.23;;;5.90;99.90;;;;;;4986009;28;20178;-83
2021/10/30 09:15:41;;;;;;;29.63;20.17;;;5.90;99.90;;;;;;4990057;28;20647;-81
2021/10/30 09:18:32;;;;;;;24.40;19.83;;;5.90;99.90;;;;;;4985764;28;20190;-81
2021/10/30 09:21:04;;;;;;;31.70;20.83;;;5.90;99.90;;;;;;4995150;28;20693;-81
2021/10/30 09:23:52;;;;;;;23.93;18.90;;;6.00;99.90;;;;;;4995229;28;20203;-82
2021/10/30 09:26:26;;;;;;;31.87;22.13;;;6.10;99.90;;;;;;4985708;28;20673;-83
2021/10/30 09:29:09;;;;;;;37.03;22.50;;;6.10;99.90;;;;;;4995823;28;20185;-83
2021/10/30 09:31:35;;;;;;;55.40;26.77;;;6.20;99.90;;;;;;5000533;28;20241;-82
2021/10/30 09:34:06;;;;;;;52.90;26.70;;;6.20;99.90;;;;;;4989267;28;20183;-82
2021/10/30 09:36:34;;;;;;;39.47;24.80;;;6.20;99.90;;;;;;4981652;28;20195;-82
2021/10/30 09:39:07;;;;;;;27.20;20.77;;;6.30;99.90;;;;;;4985979;28;20637;-82
2021/10/30 09:41:35;;;;;;;27.37;20.03;;;6.30;99.90;;;;;;4987595;28;20214;-83
2021/10/30 09:44:04;;;;;;;28.27;20.57;;;6.30;99.90;;;;;;4986910;28;20228;-83
2021/10/30 09:46:32;;;;;;;27.37;20.37;;;6.30;99.90;;;;;;4987815;28;20172;-83
2021/10/30 09:49:10;;;;;;;26.97;20.93;;;6.30;99.90;;;;;;4986426;28;20572;-81
2021/10/30 09:51:37;;;;;;;26.90;21.50;;;6.30;99.90;;;;;;4990102;28;20230;-83
2021/10/30 09:54:07;;;;;;;25.83;21.33;;;6.20;99.90;;;;;;4990564;28;20183;-82
2021/10/30 09:56:51;;;;;;;25.93;20.93;;;6.30;99.90;;;;;;4986497;28;20185;-84
2021/10/30 09:59:18;;;;;;;25.80;20.03;;;6.30;99.90;;;;;;4982763;28;20220;-81
2021/10/30 10:01:48;;;;;;;25.43;19.83;;;6.10;99.90;;;;;;4988152;28;20191;-82
2021/10/30 10:04:15;;;;;;;29.07;21.07;;;6.30;99.90;;;;;;4987228;28;20200;-83
2021/10/30 10:06:45;;;;;;;26.00;20.30;;;6.30;99.90;;;;;;4999093;28;20271;-82
2021/10/30 10:09:12;;;;;;;25.87;19.50;;;6.30;99.90;;;;;;4987304;28;20171;-83
2021/10/30 10:11:47;;;;;;;27.30;21.13;;;6.40;99.90;;;;;;4988966;28;20692;-83
2021/10/30 10:14:18;;;;;;;29.43;21.23;;;6.40;99.90;;;;;;4990669;28;20195;-83
2021/10/30 10:16:52;;;;;;;26.90;21.27;;;6.40;99.90;;;;;;4992218;28;20194;-83
2021/10/30 10:19:19;;;;;;;25.77;20.90;;;6.50;99.90;;;;;;4981942;28;20288;-81
2021/10/30 10:21:45;;;;;;;26.40;20.57;;;6.50;99.90;;;;;;4987670;28;20195;-83
2021/10/30 10:24:20;;;;;;;28.13;21.30;;;6.60;99.90;;;;;;4988971;28;20201;-82
2021/10/30 10:26:46;;;;;;;28.07;21.83;;;6.60;99.90;;;;;;4989905;28;20185;-83
2021/10/30 10:29:13;;;;;;;27.03;21.70;;;6.60;99.90;;;;;;5012107;28;20184;-82
2021/10/30 10:31:50;;;;;;;28.67;21.83;;;6.60;99.90;;;;;;5008385;28;20187;-82
2021/10/30 10:34:20;;;;;;;28.17;21.10;;;6.60;99.90;;;;;;4987898;28;20279;-82
2021/10/30 10:36:47;;;;;;;27.27;20.67;;;6.70;99.90;;;;;;4991365;28;20197;-82
2021/10/30 10:39:19;;;;;;;28.97;20.67;;;6.70;99.90;;;;;;5000200;28;20197;-82
2021/10/30 10:41:51;;;;;;;29.00;21.33;;;6.70;99.90;;;;;;4987284;28;20175;-82
2021/10/30 10:44:22;;;;;;;28.07;21.90;;;6.70;99.90;;;;;;4990989;28;20206;-82
2021/10/30 10:46:50;;;;;;;26.50;19.30;;;6.70;99.90;;;;;;5006694;28;20179;-83
2021/10/30 10:49:27;;;;;;;26.73;20.47;;;6.70;99.90;;;;;;4989877;28;20225;-83
2021/10/30 10:52:11;;;;;;;26.70;20.53;;;6.90;99.90;;;;;;4987581;28;20167;-82
2021/10/30 10:54:55;;;;;;;25.90;19.70;;;6.90;99.90;;;;;;4991635;28;20189;-82
2021/10/30 10:57:32;;;;;;;21.93;18.30;;;6.90;99.90;;;;;;4985085;28;20184;-82
2021/10/30 11:00:12;;;;;;;21.87;18.43;;;6.90;99.90;;;;;;5002170;28;20207;-83
2021/10/30 11:02:40;;;;;;;19.30;17.20;;;6.90;99.90;;;;;;4989052;28;20174;-83
2021/10/30 11:05:08;;;;;;;19.77;17.00;;;6.90;99.90;;;;;;4998588;28;20176;-83
2021/10/30 11:07:42;;;;;;;21.23;16.87;;;7.00;99.90;;;;;;5006373;28;20190;-83
2021/10/30 11:10:34;;;;;;;20.90;18.40;;;7.00;99.90;;;;;;4987768;28;20204;-82
2021/10/30 11:15:42;;;;;;;23.17;19.33;;;7.00;99.90;;;;;;4995449;28;20207;-82
2021/10/30 11:18:18;;;;;;;30.10;22.17;;;7.10;99.90;;;;;;4991069;28;20183;-81
2021/10/30 11:20:48;;;;;;;29.80;23.23;;;7.10;99.90;;;;;;4994385;28;20258;-82
2021/10/30 11:23:25;;;;;;;30.53;25.20;;;7.10;99.90;;;;;;4996257;28;20195;-82
2021/10/30 11:26:27;;;;;;;34.13;25.57;;;7.20;99.90;;;;;;4983985;28;20203;-82
2021/10/30 11:29:01;;;;;;;39.33;26.47;;;7.20;99.90;;;;;;4994759;28;20179;-81
2021/10/30 11:31:30;;;;;;;35.97;26.17;;;7.20;99.90;;;;;;5004526;28;20221;-83
2021/10/30 11:33:57;;;;;;;40.70;28.00;;;7.20;99.90;;;;;;4994825;28;20970;-81
2021/10/30 11:36:23;;;;;;;39.97;27.83;;;7.30;99.90;;;;;;4993345;28;20264;-83
2021/10/30 11:38:49;;;;;;;36.80;26.83;;;7.30;99.90;;;;;;4991200;28;20214;-81
2021/10/30 11:41:17;;;;;;;32.10;24.33;;;7.30;99.90;;;;;;4988198;28;20200;-82
2021/10/30 11:43:47;;;;;;;40.73;26.40;;;7.40;99.90;;;;;;4996813;28;20214;-81
2021/10/30 11:46:18;;;;;;;38.77;27.07;;;7.40;99.90;;;;;;4988922;28;20177;-81
2021/10/30 11:48:48;;;;;;;35.73;26.67;;;7.40;99.90;;;;;;4991388;28;20184;-83
2021/10/30 11:51:21;;;;;;;38.00;27.90;;;7.40;99.90;;;;;;4990801;28;20196;-82
2021/10/30 11:53:49;;;;;;;38.67;28.97;;;7.40;99.90;;;;;;4996688;28;20210;-82
2021/10/30 11:56:24;;;;;;;39.97;28.80;;;7.40;99.90;;;;;;4996628;28;20188;-82
2021/10/30 11:58:53;;;;;;;42.27;28.87;;;7.50;99.90;;;;;;4991109;28;20179;-83
2021/10/30 12:01:29;;;;;;;42.63;30.37;;;7.40;99.90;;;;;;4988578;28;20658;-83
2021/10/30 12:04:24;;;;;;;40.70;28.93;;;7.50;99.90;;;;;;4989739;28;20197;-82
2021/10/30 12:06:59;;;;;;;41.00;29.47;;;7.50;99.90;;;;;;4989754;28;20175;-83
2021/10/30 12:09:31;;;;;;;41.93;28.50;;;7.50;99.90;;;;;;4992392;28;20211;-83
2021/10/30 12:11:59;;;;;;;39.70;27.30;;;7.50;99.90;;;;;;4991682;28;20190;-82
2021/10/30 12:14:45;;;;;;;40.73;27.67;;;7.50;99.90;;;;;;4996229;28;20229;-83
2021/10/30 12:17:20;;;;;;;41.50;28.97;;;7.50;99.90;;;;;;4992130;28;20174;-83
2021/10/30 12:19:58;;;;;;;41.17;31.47;;;7.50;99.90;;;;;;4986425;28;20286;-83
2021/10/30 12:22:24;;;;;;;34.60;25.50;;;7.70;99.90;;;;;;4991892;28;20180;-82
2021/10/30 12:25:08;;;;;;;31.37;23.80;;;7.60;99.90;;;;;;4989433;28;20199;-83
2021/10/30 12:27:49;;;;;;;28.90;23.00;;;7.60;99.90;;;;;;4993395;28;20657;-82
2021/10/30 12:30:41;;;;;;;30.00;22.73;;;7.60;99.90;;;;;;4994762;28;20191;-83
2021/10/30 12:33:12;;;;;;;24.70;19.67;;;7.60;99.90;;;;;;4992476;28;20227;-82
2021/10/30 12:35:48;;;;;;;24.77;20.43;;;7.60;99.90;;;;;;4988787;28;20176;-81
2021/10/30 12:38:21;;;;;;;27.53;20.67;;;7.60;99.90;;;;;;4982961;28;20178;-81
2021/10/30 12:40:50;;;;;;;30.93;24.17;;;7.60;99.90;;;;;;4991238;28;20547;-83
2021/10/30 12:43:19;;;;;;;33.77;24.97;;;7.70;99.90;;;;;;4981608;28;20223;-82
2021/10/30 12:45:48;;;;;;;32.20;25.63;;;7.70;99.90;;;;;;4993392;28;20199;-82